Time;durP1;ratioP1;P1;durP2;ratioP2;P2;SDS_P1;SDS_P2;PMS_P1;PMS_P2;Temp;Humidity;BMP_temperature;BMP_pressure;BME280_temperature;BME280_humidity;BME280_pressure;Samples;Min_cycle;Max_cycle;Signal;HPM_P1;HPM_P2
2023/06/12 00:00:05;;;;;;;4.15;1.73;;;;;;;;;;5104973;27;20058;-63
2023/06/12 00:02:32;;;;;;;4.20;2.00;;;;;;;;;;5095209;28;20705;-63
2023/06/12 00:05:00;;;;;;;2.63;1.98;;;;;;;;;;5105893;28;20079;-63
2023/06/12 00:07:28;;;;;;;3.50;1.58;;;;;;;;;;5109492;28;20047;-64
2023/06/12 00:09:56;;;;;;;4.10;1.70;;;;;;;;;;5092391;28;20092;-63
2023/06/12 00:12:23;;;;;;;3.47;1.83;;;;;;;;;;5109396;28;20309;-64
2023/06/12 00:14:50;;;;;;;3.70;1.83;;;;;;;;;;5110617;27;20062;-63
2023/06/12 00:17:17;;;;;;;3.42;1.50;;;;;;;;;;5107975;28;20047;-63
2023/06/12 00:19:45;;;;;;;2.92;1.67;;;;;;;;;;5106810;27;20492;-63
2023/06/12 00:22:13;;;;;;;3.97;2.00;;;;;;;;;;5106376;28;20097;-63
2023/06/12 00:24:41;;;;;;;4.53;1.80;;;;;;;;;;5106690;28;20135;-63
2023/06/12 00:27:08;;;;;;;3.00;1.85;;;;;;;;;;5106427;28;20398;-63
2023/06/12 00:29:35;;;;;;;3.90;1.83;;;;;;;;;;5099318;28;20044;-63
2023/06/12 00:32:02;;;;;;;6.25;1.83;;;;;;;;;;5100491;28;20364;-63
2023/06/12 00:34:29;;;;;;;2.90;1.70;;;;;;;;;;5111075;28;20039;-63
2023/06/12 00:36:57;;;;;;;2.47;1.77;;;;;;;;;;5110600;28;20483;-63
2023/06/12 00:39:25;;;;;;;2.83;1.88;;;;;;;;;;5106584;28;20052;-63
2023/06/12 00:41:52;;;;;;;5.93;1.95;;;;;;;;;;5107034;28;20048;-64
2023/06/12 00:44:20;;;;;;;2.45;1.58;;;;;;;;;;5109126;27;20414;-63
2023/06/12 00:46:47;;;;;;;2.88;1.63;;;;;;;;;;5104394;28;20036;-63
2023/06/12 00:49:15;;;;;;;3.80;1.80;;;;;;;;;;5105173;28;20048;-63
2023/06/12 00:51:42;;;;;;;3.80;1.50;;;;;;;;;;5110612;28;20047;-63
2023/06/12 00:54:09;;;;;;;2.53;1.52;;;;;;;;;;5110971;28;20490;-63
2023/06/12 00:56:38;;;;;;;3.22;1.80;;;;;;;;;;5106492;28;20058;-63
2023/06/12 00:59:05;;;;;;;2.90;1.65;;;;;;;;;;5111260;28;20104;-63
2023/06/12 01:01:33;;;;;;;5.30;1.70;;;;;;;;;;5103009;28;20058;-63
2023/06/12 01:04:00;;;;;;;1.65;1.20;;;;;;;;;;5110326;28;20043;-63
2023/06/12 01:06:31;;;;;;;2.63;1.55;;;;;;;;;;5106480;28;20051;-63
2023/06/12 01:09:04;;;;;;;2.95;1.85;;;;;;;;;;5108171;28;20379;-64
2023/06/12 01:11:34;;;;;;;3.90;1.73;;;;;;;;;;5109899;28;20047;-63
2023/06/12 01:14:03;;;;;;;4.10;1.58;;;;;;;;;;5106443;27;20445;-64
2023/06/12 01:16:31;;;;;;;2.47;1.58;;;;;;;;;;5107190;28;20048;-63
2023/06/12 01:19:00;;;;;;;2.25;1.55;;;;;;;;;;5110987;28;20126;-63
2023/06/12 01:21:32;;;;;;;4.32;1.70;;;;;;;;;;5101958;28;20051;-63
2023/06/12 01:24:13;;;;;;;2.63;1.50;;;;;;;;;;5109337;28;20126;-64
2023/06/12 01:26:49;;;;;;;2.35;1.40;;;;;;;;;;5082331;28;20056;-64
2023/06/12 01:29:29;;;;;;;4.97;1.63;;;;;;;;;;5110102;28;20058;-63
2023/06/12 01:32:03;;;;;;;2.13;1.65;;;;;;;;;;5084142;28;20090;-63
2023/06/12 01:34:34;;;;;;;3.38;1.60;;;;;;;;;;5106861;28;20059;-63
2023/06/12 01:37:06;;;;;;;3.13;1.88;;;;;;;;;;5107918;27;20127;-63
2023/06/12 01:39:37;;;;;;;3.23;1.73;;;;;;;;;;5110475;28;20052;-63
2023/06/12 01:42:07;;;;;;;2.35;1.60;;;;;;;;;;5107247;28;20044;-63
2023/06/12 01:44:34;;;;;;;2.88;1.67;;;;;;;;;;5085054;28;20047;-63
2023/06/12 01:47:03;;;;;;;2.53;1.45;;;;;;;;;;5091463;28;20055;-63
2023/06/12 01:49:30;;;;;;;2.65;1.60;;;;;;;;;;5103280;28;20047;-63
2023/06/12 01:51:57;;;;;;;2.67;1.65;;;;;;;;;;5103418;28;20074;-63
2023/06/12 01:54:26;;;;;;;3.05;1.48;;;;;;;;;;5109425;28;20044;-63
2023/06/12 01:56:53;;;;;;;2.47;1.60;;;;;;;;;;5107625;28;20052;-63
2023/06/12 01:59:20;;;;;;;2.25;1.35;;;;;;;;;;5087551;28;20051;-63
2023/06/12 02:01:47;;;;;;;2.95;1.63;;;;;;;;;;5094567;28;20055;-63
2023/06/12 02:04:17;;;;;;;2.10;1.50;;;;;;;;;;5103095;28;20487;-63
2023/06/12 02:06:44;;;;;;;2.33;1.70;;;;;;;;;;5109244;28;20076;-63
2023/06/12 02:09:11;;;;;;;3.08;1.63;;;;;;;;;;5103458;28;20105;-63
2023/06/12 02:11:39;;;;;;;3.28;1.45;;;;;;;;;;5106353;28;20047;-63
2023/06/12 02:14:06;;;;;;;3.00;1.67;;;;;;;;;;5107237;28;20055;-63
2023/06/12 02:16:33;;;;;;;2.90;1.60;;;;;;;;;;5106205;28;20059;-63
2023/06/12 02:19:00;;;;;;;3.33;1.33;;;;;;;;;;5109907;28;20047;-63
2023/06/12 02:21:29;;;;;;;3.33;1.50;;;;;;;;;;5106458;28;20040;-63
2023/06/12 02:23:56;;;;;;;2.40;1.80;;;;;;;;;;5109322;28;20063;-63
2023/06/12 02:26:23;;;;;;;4.78;1.70;;;;;;;;;;5103622;28;20647;-63
2023/06/12 02:29:05;;;;;;;2.70;1.42;;;;;;;;;;5101255;28;20059;-63
2023/06/12 02:31:33;;;;;;;5.25;1.50;;;;;;;;;;5109681;28;20047;-63
2023/06/12 02:34:00;;;;;;;2.63;1.70;;;;;;;;;;5097544;28;20486;-63
2023/06/12 02:36:29;;;;;;;2.92;1.52;;;;;;;;;;5104516;28;20074;-63
2023/06/12 02:38:56;;;;;;;2.60;1.42;;;;;;;;;;5080488;28;20165;-63
2023/06/12 02:41:24;;;;;;;2.53;1.88;;;;;;;;;;5103586;28;20055;-63
2023/06/12 02:43:51;;;;;;;4.03;1.88;;;;;;;;;;5101990;28;20063;-63
2023/06/12 02:46:18;;;;;;;2.20;1.63;;;;;;;;;;5102922;28;20047;-63
2023/06/12 02:48:45;;;;;;;2.65;1.42;;;;;;;;;;5106333;28;20605;-62
2023/06/12 02:51:12;;;;;;;2.20;1.50;;;;;;;;;;5099838;28;20498;-63
2023/06/12 02:53:41;;;;;;;3.40;1.38;;;;;;;;;;5108397;28;20050;-63
2023/06/12 02:56:08;;;;;;;2.28;1.67;;;;;;;;;;5100716;28;20039;-63
2023/06/12 02:58:36;;;;;;;2.80;1.70;;;;;;;;;;5100886;28;20051;-63
2023/06/12 03:01:04;;;;;;;4.85;1.60;;;;;;;;;;5103872;28;20058;-62
2023/06/12 03:03:31;;;;;;;5.50;1.90;;;;;;;;;;5108278;28;20066;-63
2023/06/12 03:05:58;;;;;;;4.05;1.60;;;;;;;;;;5108470;28;20074;-63
2023/06/12 03:08:25;;;;;;;5.05;1.67;;;;;;;;;;5106300;28;20067;-63
2023/06/12 03:10:54;;;;;;;2.75;1.42;;;;;;;;;;5110108;28;20052;-63
2023/06/12 03:13:21;;;;;;;3.92;1.40;;;;;;;;;;5109557;28;20052;-63
2023/06/12 03:15:49;;;;;;;3.28;1.67;;;;;;;;;;5110388;28;20075;-63
2023/06/12 03:18:16;;;;;;;4.95;1.70;;;;;;;;;;5110773;28;20055;-63
2023/06/12 03:20:43;;;;;;;1.92;1.40;;;;;;;;;;5113006;28;20043;-63
2023/06/12 03:23:11;;;;;;;4.05;1.40;;;;;;;;;;5112353;28;20039;-63
2023/06/12 03:25:38;;;;;;;4.45;1.63;;;;;;;;;;5092169;28;20398;-62
2023/06/12 03:28:07;;;;;;;2.63;1.50;;;;;;;;;;5105604;28;20048;-63
2023/06/12 03:30:34;;;;;;;2.10;1.50;;;;;;;;;;5108004;28;20065;-63
2023/06/12 03:33:02;;;;;;;7.65;1.90;;;;;;;;;;5112382;28;20047;-63
2023/06/12 03:35:30;;;;;;;2.75;1.80;;;;;;;;;;5082352;28;20047;-62
2023/06/12 03:37:57;;;;;;;2.63;1.60;;;;;;;;;;5106594;28;20126;-62
2023/06/12 03:40:24;;;;;;;3.97;1.67;;;;;;;;;;5084957;28;20052;-62
2023/06/12 03:42:54;;;;;;;4.75;1.90;;;;;;;;;;5091948;28;20056;-63
2023/06/12 03:45:23;;;;;;;3.85;1.58;;;;;;;;;;5090388;28;20064;-63
2023/06/12 03:47:50;;;;;;;2.72;1.70;;;;;;;;;;5088208;28;20052;-63
2023/06/12 03:50:19;;;;;;;2.83;1.73;;;;;;;;;;5091140;28;20139;-63
2023/06/12 03:52:46;;;;;;;8.02;1.90;;;;;;;;;;5090361;28;20051;-63
2023/06/12 03:55:14;;;;;;;3.28;1.58;;;;;;;;;;5086298;28;20063;-62
2023/06/12 03:57:41;;;;;;;4.50;1.63;;;;;;;;;;5089096;28;20055;-63
2023/06/12 04:00:09;;;;;;;2.83;1.60;;;;;;;;;;5087862;28;20056;-63
2023/06/12 04:02:38;;;;;;;3.38;1.75;;;;;;;;;;5090574;28;20055;-63
2023/06/12 04:05:08;;;;;;;3.53;1.70;;;;;;;;;;5086079;28;20066;-63
2023/06/12 04:07:36;;;;;;;2.13;1.45;;;;;;;;;;5089299;28;20125;-63
2023/06/12 04:10:03;;;;;;;3.08;1.70;;;;;;;;;;5086611;28;20055;-63
2023/06/12 04:12:31;;;;;;;3.67;1.63;;;;;;;;;;5087152;28;20410;-63
2023/06/12 04:14:58;;;;;;;5.72;1.80;;;;;;;;;;5079899;28;20063;-63
2023/06/12 04:17:25;;;;;;;3.75;1.92;;;;;;;;;;5090115;28;20064;-63
2023/06/12 04:19:55;;;;;;;2.83;1.73;;;;;;;;;;5088980;28;20052;-63
2023/06/12 04:22:25;;;;;;;2.40;1.85;;;;;;;;;;5090385;28;20052;-63
2023/06/12 04:24:53;;;;;;;3.05;1.58;;;;;;;;;;5091291;28;20590;-63
2023/06/12 04:27:20;;;;;;;4.32;1.73;;;;;;;;;;5090341;28;20040;-63
2023/06/12 04:29:47;;;;;;;3.08;1.83;;;;;;;;;;5088968;28;20074;-63
2023/06/12 04:32:15;;;;;;;4.80;2.03;;;;;;;;;;5090017;28;20058;-63
2023/06/12 04:34:43;;;;;;;2.95;1.52;;;;;;;;;;5090578;28;20055;-62
2023/06/12 04:37:13;;;;;;;2.03;1.27;;;;;;;;;;5082272;28;20131;-63
2023/06/12 04:39:41;;;;;;;6.35;1.70;;;;;;;;;;5096865;28;20125;-63
2023/06/12 04:42:10;;;;;;;3.20;1.70;;;;;;;;;;5085222;28;20044;-63
2023/06/12 04:44:39;;;;;;;3.55;1.73;;;;;;;;;;5110195;27;20414;-62
2023/06/12 04:47:08;;;;;;;3.33;1.70;;;;;;;;;;5108388;28;20580;-62
2023/06/12 04:49:35;;;;;;;3.95;1.90;;;;;;;;;;5109384;28;20069;-62
2023/06/12 04:52:03;;;;;;;6.68;1.80;;;;;;;;;;5109853;27;20051;-63
2023/06/12 04:54:35;;;;;;;2.42;1.77;;;;;;;;;;5107448;28;20097;-62
2023/06/12 04:57:03;;;;;;;5.35;1.42;;;;;;;;;;5090581;28;20047;-63
2023/06/12 04:59:37;;;;;;;3.63;1.70;;;;;;;;;;5109074;28;20040;-63
2023/06/12 05:02:05;;;;;;;4.40;1.70;;;;;;;;;;5109235;27;20044;-63
2023/06/12 05:04:35;;;;;;;3.53;1.52;;;;;;;;;;5107152;28;20457;-62
2023/06/12 05:07:04;;;;;;;3.70;1.83;;;;;;;;;;5102707;28;20054;-62
2023/06/12 05:09:33;;;;;;;2.65;1.88;;;;;;;;;;5110148;28;20063;-63
2023/06/12 05:12:02;;;;;;;4.47;1.77;;;;;;;;;;5110165;28;20047;-62
2023/06/12 05:14:29;;;;;;;2.35;1.52;;;;;;;;;;5106907;28;20056;-63
2023/06/12 05:16:59;;;;;;;3.47;1.85;;;;;;;;;;5111272;28;20051;-63
2023/06/12 05:19:27;;;;;;;4.63;1.98;;;;;;;;;;5106419;28;20130;-62
2023/06/12 05:21:54;;;;;;;3.00;1.90;;;;;;;;;;5107924;28;20074;-63
2023/06/12 05:24:21;;;;;;;2.85;1.80;;;;;;;;;;5105565;27;20483;-63
2023/06/12 05:26:50;;;;;;;5.00;1.95;;;;;;;;;;5103062;28;20062;-63
2023/06/12 05:29:17;;;;;;;5.60;2.00;;;;;;;;;;5108594;28;20082;-63
2023/06/12 05:31:45;;;;;;;4.35;1.92;;;;;;;;;;5108286;27;20145;-63
2023/06/12 05:34:12;;;;;;;3.38;1.80;;;;;;;;;;5106992;28;20086;-63
2023/06/12 05:36:40;;;;;;;3.28;1.92;;;;;;;;;;5100077;28;20052;-63
2023/06/12 05:39:07;;;;;;;3.38;2.00;;;;;;;;;;5105036;28;20399;-63
2023/06/12 05:41:34;;;;;;;3.75;2.00;;;;;;;;;;5103654;28;20071;-63
2023/06/12 05:44:05;;;;;;;4.38;2.30;;;;;;;;;;5106050;28;20055;-62
2023/06/12 05:46:32;;;;;;;4.05;2.00;;;;;;;;;;5092911;28;20055;-62
2023/06/12 05:49:00;;;;;;;3.90;2.10;;;;;;;;;;5107894;28;20083;-63
2023/06/12 05:51:27;;;;;;;7.47;2.20;;;;;;;;;;5105686;28;20044;-68
2023/06/12 05:53:54;;;;;;;3.67;1.88;;;;;;;;;;5081879;28;20062;-69
2023/06/12 05:56:22;;;;;;;5.00;1.98;;;;;;;;;;5085116;28;20055;-69
2023/06/12 05:58:49;;;;;;;4.25;1.95;;;;;;;;;;5100919;28;20052;-69
2023/06/12 06:01:21;;;;;;;6.75;2.10;;;;;;;;;;5105290;28;20083;-69
2023/06/12 06:03:50;;;;;;;5.07;2.30;;;;;;;;;;5110080;28;20137;-69
2023/06/12 06:06:18;;;;;;;5.78;2.30;;;;;;;;;;5101484;28;20075;-69
2023/06/12 06:08:46;;;;;;;3.83;2.05;;;;;;;;;;5101653;28;20059;-68
2023/06/12 06:11:13;;;;;;;5.90;2.00;;;;;;;;;;5100992;28;20047;-69
2023/06/12 06:13:43;;;;;;;5.05;1.98;;;;;;;;;;5106798;28;20486;-69
2023/06/12 06:16:11;;;;;;;3.90;2.00;;;;;;;;;;5104282;28;20043;-69
2023/06/12 06:18:40;;;;;;;4.00;2.35;;;;;;;;;;5104245;28;20039;-69
2023/06/12 06:21:07;;;;;;;3.97;2.15;;;;;;;;;;5098205;28;20054;-69
2023/06/12 06:23:34;;;;;;;5.00;2.35;;;;;;;;;;5098513;28;20126;-69
2023/06/12 06:26:02;;;;;;;8.07;1.88;;;;;;;;;;5100444;28;20047;-69
2023/06/12 06:28:29;;;;;;;3.70;2.30;;;;;;;;;;5081593;28;20047;-69
2023/06/12 06:30:57;;;;;;;5.10;2.33;;;;;;;;;;5087008;28;20048;-69
2023/06/12 06:33:24;;;;;;;5.53;2.17;;;;;;;;;;5101598;28;20479;-69
2023/06/12 06:35:53;;;;;;;2.13;1.50;;;;;;;;;;5104775;28;20048;-69
2023/06/12 06:38:22;;;;;;;4.47;2.10;;;;;;;;;;5081284;28;20063;-69
2023/06/12 06:40:49;;;;;;;4.15;2.20;;;;;;;;;;5112778;28;20051;-69
2023/06/12 06:43:16;;;;;;;3.50;2.30;;;;;;;;;;5107447;27;20058;-69
2023/06/12 06:45:43;;;;;;;6.10;2.25;;;;;;;;;;5104624;28;20047;-69
2023/06/12 06:48:13;;;;;;;4.43;2.25;;;;;;;;;;5111340;28;20105;-69
2023/06/12 06:50:40;;;;;;;3.80;1.90;;;;;;;;;;5104700;28;20050;-69
2023/06/12 06:53:09;;;;;;;3.13;1.98;;;;;;;;;;5112374;28;20043;-69
2023/06/12 06:55:37;;;;;;;4.50;2.05;;;;;;;;;;5090580;28;20466;-69
2023/06/12 06:58:04;;;;;;;4.10;2.10;;;;;;;;;;5089251;28;20482;-69
2023/06/12 07:00:32;;;;;;;5.97;2.25;;;;;;;;;;5087301;28;20145;-69
2023/06/12 07:02:59;;;;;;;4.75;2.20;;;;;;;;;;5110104;28;20436;-69
2023/06/12 07:05:27;;;;;;;4.40;2.00;;;;;;;;;;5111207;28;20054;-69
2023/06/12 07:07:54;;;;;;;7.28;2.47;;;;;;;;;;5112872;28;20078;-69
2023/06/12 07:10:23;;;;;;;3.92;2.50;;;;;;;;;;5108885;28;20497;-69
2023/06/12 07:12:56;;;;;;;3.40;1.98;;;;;;;;;;5112372;27;20048;-69
2023/06/12 07:15:23;;;;;;;;;;;;;;;;;;5091500;28;20725;-69
2023/06/12 07:17:50;;;;;;;3.88;2.45;;;;;;;;;;5105768;28;19924;-69
2023/06/12 07:20:18;;;;;;;4.47;2.22;;;;;;;;;;5109970;27;20040;-69
2023/06/12 07:22:45;;;;;;;5.60;2.38;;;;;;;;;;5092580;28;20056;-69
2023/06/12 07:25:12;;;;;;;6.32;2.25;;;;;;;;;;5085814;28;20055;-69
2023/06/12 07:27:41;;;;;;;3.55;2.25;;;;;;;;;;5110180;28;20515;-69
2023/06/12 07:30:09;;;;;;;4.18;2.58;;;;;;;;;;5102251;28;20040;-69
2023/06/12 07:32:36;;;;;;;4.70;2.55;;;;;;;;;;5113286;28;20071;-69
2023/06/12 07:35:04;;;;;;;4.75;2.25;;;;;;;;;;5112353;28;20055;-69
2023/06/12 07:37:34;;;;;;;4.40;2.60;;;;;;;;;;5090734;28;20556;-69
2023/06/12 07:40:03;;;;;;;5.22;2.67;;;;;;;;;;5101305;28;20051;-69
2023/06/12 07:42:30;;;;;;;6.43;2.58;;;;;;;;;;5111292;28;20048;-69
2023/06/12 07:44:59;;;;;;;6.03;2.28;;;;;;;;;;5109329;28;20048;-69
2023/06/12 07:47:26;;;;;;;4.65;2.65;;;;;;;;;;5107160;28;20047;-69
2023/06/12 07:49:54;;;;;;;3.58;2.50;;;;;;;;;;5100214;28;20086;-69
2023/06/12 07:52:22;;;;;;;5.15;2.70;;;;;;;;;;5105198;28;20075;-69
2023/06/12 07:54:50;;;;;;;4.28;2.58;;;;;;;;;;5089150;28;20086;-69
2023/06/12 07:57:17;;;;;;;4.10;2.58;;;;;;;;;;5109350;28;20044;-69
2023/06/12 07:59:45;;;;;;;5.25;2.47;;;;;;;;;;5084228;28;20044;-69
2023/06/12 08:02:14;;;;;;;5.75;2.75;;;;;;;;;;5087696;28;20048;-69
2023/06/12 08:04:42;;;;;;;5.07;2.60;;;;;;;;;;5107289;28;20086;-69
2023/06/12 08:07:12;;;;;;;4.82;2.72;;;;;;;;;;5111637;28;20136;-69
2023/06/12 08:09:40;;;;;;;5.80;2.47;;;;;;;;;;5108339;28;20040;-69
2023/06/12 08:12:09;;;;;;;4.25;2.15;;;;;;;;;;5109671;28;20603;-69
2023/06/12 08:14:36;;;;;;;3.72;2.60;;;;;;;;;;5109053;28;20100;-69
2023/06/12 08:17:04;;;;;;;6.20;2.63;;;;;;;;;;5103740;28;20062;-69
2023/06/12 08:19:34;;;;;;;4.90;2.10;;;;;;;;;;5110492;28;20525;-69
2023/06/12 08:22:01;;;;;;;4.75;2.50;;;;;;;;;;5111376;28;20052;-69
2023/06/12 08:24:30;;;;;;;4.88;2.17;;;;;;;;;;5100905;28;20124;-69
2023/06/12 08:26:57;;;;;;;5.82;2.28;;;;;;;;;;5109137;28;20051;-69
2023/06/12 08:29:25;;;;;;;5.45;2.38;;;;;;;;;;5110269;28;20039;-70
2023/06/12 08:31:52;;;;;;;3.65;2.05;;;;;;;;;;5109649;28;20047;-69
2023/06/12 08:34:20;;;;;;;7.45;2.20;;;;;;;;;;5110116;28;20055;-69
2023/06/12 08:36:49;;;;;;;4.88;2.13;;;;;;;;;;5109539;28;20097;-70
2023/06/12 08:39:16;;;;;;;3.00;2.40;;;;;;;;;;5069455;28;1153650;-69
2023/06/12 08:41:49;;;;;;;4.90;2.00;;;;;;;;;;5110826;28;20146;-70
2023/06/12 08:44:17;;;;;;;2.97;1.85;;;;;;;;;;5111235;27;20096;-70
2023/06/12 08:46:45;;;;;;;3.78;2.00;;;;;;;;;;5108728;28;20101;-69
2023/06/12 08:49:15;;;;;;;2.75;1.98;;;;;;;;;;5092905;28;20051;-70
2023/06/12 08:51:43;;;;;;;4.13;2.20;;;;;;;;;;5100241;27;20529;-69
2023/06/12 08:54:12;;;;;;;3.97;2.38;;;;;;;;;;5110341;28;20043;-70
2023/06/12 08:56:43;;;;;;;2.80;2.00;;;;;;;;;;5092144;28;20062;-69
2023/06/12 08:59:10;;;;;;;5.50;1.73;;;;;;;;;;5101923;28;20055;-70
2023/06/12 09:01:38;;;;;;;4.35;1.90;;;;;;;;;;5105308;28;20048;-69
2023/06/12 09:04:08;;;;;;;4.38;1.88;;;;;;;;;;5109794;28;20071;-69
2023/06/12 09:06:36;;;;;;;3.13;1.98;;;;;;;;;;5105422;28;20083;-70
2023/06/12 09:09:04;;;;;;;3.90;2.00;;;;;;;;;;5106908;28;20087;-69
2023/06/12 09:11:36;;;;;;;5.68;1.63;;;;;;;;;;5107017;28;20043;-70
2023/06/12 09:14:03;;;;;;;4.60;2.20;;;;;;;;;;5109047;28;20149;-69
2023/06/12 09:16:31;;;;;;;4.97;2.05;;;;;;;;;;5102795;28;20121;-70
2023/06/12 09:18:58;;;;;;;5.80;1.90;;;;;;;;;;5101823;28;20052;-70
2023/06/12 09:21:26;;;;;;;2.42;1.90;;;;;;;;;;5109706;28;20129;-70
2023/06/12 09:23:54;;;;;;;5.07;2.22;;;;;;;;;;5108537;28;20055;-69
2023/06/12 09:26:22;;;;;;;2.72;1.80;;;;;;;;;;5111127;28;20047;-70
2023/06/12 09:28:52;;;;;;;4.75;1.90;;;;;;;;;;5084406;28;20105;-69
2023/06/12 09:31:20;;;;;;;3.38;2.20;;;;;;;;;;5111053;28;20035;-70
2023/06/12 09:33:48;;;;;;;2.75;2.03;;;;;;;;;;5109247;28;20056;-70
2023/06/12 09:36:15;;;;;;;2.88;2.17;;;;;;;;;;5111506;28;20479;-70
2023/06/12 09:38:42;;;;;;;3.42;2.20;;;;;;;;;;5107947;28;20051;-70
2023/06/12 09:41:10;;;;;;;3.33;1.92;;;;;;;;;;5110509;28;20047;-70
2023/06/12 09:43:38;;;;;;;3.40;2.35;;;;;;;;;;5106121;28;20071;-70
2023/06/12 09:46:08;;;;;;;2.83;2.15;;;;;;;;;;5109582;28;20044;-70
2023/06/12 09:48:35;;;;;;;6.40;2.15;;;;;;;;;;5085556;28;20047;-70
2023/06/12 09:51:06;;;;;;;3.33;2.10;;;;;;;;;;5108836;28;20104;-70
2023/06/12 09:53:36;;;;;;;5.05;2.58;;;;;;;;;;5107156;28;20550;-70
2023/06/12 09:56:05;;;;;;;5.15;2.08;;;;;;;;;;5094287;28;20044;-70
2023/06/12 09:58:33;;;;;;;2.78;2.13;;;;;;;;;;5081947;28;20050;-70
2023/06/12 10:01:05;;;;;;;4.13;2.30;;;;;;;;;;5103738;28;20062;-70
2023/06/12 10:03:34;;;;;;;3.13;2.13;;;;;;;;;;5108972;28;20049;-70
2023/06/12 10:06:03;;;;;;;3.72;2.15;;;;;;;;;;5107428;28;20138;-70
2023/06/12 10:08:30;;;;;;;3.88;1.85;;;;;;;;;;5106920;28;20502;-70
2023/06/12 10:10:59;;;;;;;4.18;2.22;;;;;;;;;;5107021;28;20108;-70
2023/06/12 10:13:26;;;;;;;5.05;2.45;;;;;;;;;;5108649;28;20070;-70
2023/06/12 10:15:54;;;;;;;5.68;2.30;;;;;;;;;;5107577;27;20047;-70
2023/06/12 10:18:22;;;;;;;3.72;2.10;;;;;;;;;;5105663;28;20052;-70
2023/06/12 10:20:51;;;;;;;4.22;2.85;;;;;;;;;;5105805;28;20055;-70
2023/06/12 10:23:18;;;;;;;6.13;2.47;;;;;;;;;;5090033;28;20516;-70
2023/06/12 10:25:46;;;;;;;3.15;2.25;;;;;;;;;;5100257;28;20048;-70
2023/06/12 10:28:15;;;;;;;3.58;2.25;;;;;;;;;;5106428;28;20483;-70
2023/06/12 10:30:57;;;;;;;3.78;2.17;;;;;;;;;;5108702;28;20139;-69
2023/06/12 10:33:25;;;;;;;4.47;2.50;;;;;;;;;;5095003;28;20404;-70
2023/06/12 10:35:53;;;;;;;4.05;2.50;;;;;;;;;;5106922;28;20052;-70
2023/06/12 10:38:21;;;;;;;4.65;2.10;;;;;;;;;;5107691;28;20052;-70
2023/06/12 10:40:51;;;;;;;5.30;2.28;;;;;;;;;;5108447;28;20052;-70
2023/06/12 10:43:22;;;;;;;3.85;2.20;;;;;;;;;;5099401;28;20043;-70
2023/06/12 10:45:57;;;;;;;3.72;2.50;;;;;;;;;;5101931;28;20443;-70
2023/06/12 10:48:25;;;;;;;2.58;2.20;;;;;;;;;;5105646;28;20523;-70
2023/06/12 10:50:56;;;;;;;3.60;2.08;;;;;;;;;;5109526;28;20118;-70
2023/06/12 10:53:25;;;;;;;3.80;2.58;;;;;;;;;;5103166;28;20047;-70
2023/06/12 10:55:57;;;;;;;4.40;2.80;;;;;;;;;;5103778;28;20044;-70
2023/06/12 10:58:25;;;;;;;5.70;2.78;;;;;;;;;;5101331;28;20043;-70
2023/06/12 11:00:53;;;;;;;3.45;2.33;;;;;;;;;;5106235;28;20052;-70
2023/06/12 11:03:25;;;;;;;3.25;2.40;;;;;;;;;;5087211;28;20499;-70
2023/06/12 11:05:55;;;;;;;4.45;2.60;;;;;;;;;;5107623;28;20448;-70
2023/06/12 11:08:24;;;;;;;5.47;2.60;;;;;;;;;;5098649;28;20054;-70
2023/06/12 11:10:51;;;;;;;3.60;2.72;;;;;;;;;;5106760;28;20044;-70
2023/06/12 11:13:18;;;;;;;4.22;2.63;;;;;;;;;;5098365;28;20075;-70
2023/06/12 11:15:47;;;;;;;3.95;2.72;;;;;;;;;;5105686;28;20063;-70
2023/06/12 11:18:14;;;;;;;4.57;2.78;;;;;;;;;;5103062;28;20496;-70
2023/06/12 11:20:43;;;;;;;4.65;2.60;;;;;;;;;;5096689;28;20040;-71
2023/06/12 11:23:11;;;;;;;4.45;2.50;;;;;;;;;;5106926;28;20044;-70
2023/06/12 11:25:43;;;;;;;3.67;2.53;;;;;;;;;;5109376;28;20048;-71
2023/06/12 11:28:11;;;;;;;2.58;2.22;;;;;;;;;;5106215;28;20054;-71
2023/06/12 11:30:39;;;;;;;6.32;2.60;;;;;;;;;;5107017;28;20040;-71
2023/06/12 11:33:08;;;;;;;3.95;2.60;;;;;;;;;;5108505;28;20057;-70
2023/06/12 11:35:40;;;;;;;2.90;2.60;;;;;;;;;;5110826;28;20100;-71
2023/06/12 11:38:07;;;;;;;6.50;2.78;;;;;;;;;;5104546;28;20055;-70
2023/06/12 11:40:35;;;;;;;4.90;2.97;;;;;;;;;;5109418;28;20055;-71
2023/06/12 11:43:03;;;;;;;7.43;3.08;;;;;;;;;;5091168;28;20052;-71
2023/06/12 11:45:31;;;;;;;4.18;3.10;;;;;;;;;;5112571;28;20440;-71
2023/06/12 11:47:59;;;;;;;5.13;2.78;;;;;;;;;;5091667;28;20048;-70
2023/06/12 11:50:27;;;;;;;3.13;2.72;;;;;;;;;;5112381;28;20108;-71
2023/06/12 11:52:56;;;;;;;3.25;2.60;;;;;;;;;;5108763;28;20486;-71
2023/06/12 11:55:23;;;;;;;4.93;2.65;;;;;;;;;;5103475;28;20121;-71
2023/06/12 11:57:52;;;;;;;4.13;3.10;;;;;;;;;;5110601;28;20051;-71
2023/06/12 12:00:21;;;;;;;3.45;2.88;;;;;;;;;;5095884;28;20051;-71
2023/06/12 12:02:51;;;;;;;3.13;2.80;;;;;;;;;;5108333;28;20059;-71
2023/06/12 12:05:20;;;;;;;4.90;2.67;;;;;;;;;;5109926;28;20046;-71
2023/06/12 12:07:56;;;;;;;3.60;3.03;;;;;;;;;;5108158;27;20130;-71
2023/06/12 12:10:24;;;;;;;3.90;2.70;;;;;;;;;;5110811;28;20119;-71
2023/06/12 12:12:53;;;;;;;4.95;3.00;;;;;;;;;;5099413;28;20083;-71
2023/06/12 12:15:22;;;;;;;4.00;3.25;;;;;;;;;;5105935;28;20044;-71
2023/06/12 12:17:49;;;;;;;4.22;3.08;;;;;;;;;;5111638;28;20043;-71
2023/06/12 12:20:18;;;;;;;3.65;3.33;;;;;;;;;;5105661;28;20542;-71
2023/06/12 12:22:47;;;;;;;3.40;2.83;;;;;;;;;;5110679;28;20047;-71
2023/06/12 12:25:18;;;;;;;6.55;3.17;;;;;;;;;;5102923;28;20040;-68
2023/06/12 12:27:46;;;;;;;3.50;3.10;;;;;;;;;;5097217;28;20134;-65
2023/06/12 12:30:15;;;;;;;7.68;3.20;;;;;;;;;;5107951;27;20043;-64
2023/06/12 12:32:44;;;;;;;4.47;3.33;;;;;;;;;;5102002;28;20040;-65
2023/06/12 12:35:11;;;;;;;5.72;3.60;;;;;;;;;;5103173;28;20055;-65
2023/06/12 12:37:38;;;;;;;4.43;3.70;;;;;;;;;;5091672;28;20043;-64
2023/06/12 12:40:09;;;;;;;5.20;3.53;;;;;;;;;;5110675;28;20051;-65
2023/06/12 12:42:37;;;;;;;4.03;3.63;;;;;;;;;;5105899;27;20376;-64
2023/06/12 12:45:05;;;;;;;4.72;3.70;;;;;;;;;;5099724;28;20067;-64
2023/06/12 12:47:34;;;;;;;6.13;3.70;;;;;;;;;;5110026;27;20044;-65
2023/06/12 12:50:02;;;;;;;5.28;3.95;;;;;;;;;;5109558;28;20055;-65
2023/06/12 12:52:29;;;;;;;3.97;3.58;;;;;;;;;;5105462;28;20051;-65
2023/06/12 12:54:56;;;;;;;4.50;3.60;;;;;;;;;;5085790;28;20048;-64
2023/06/12 12:57:24;;;;;;;6.47;3.50;;;;;;;;;;5110617;28;20039;-65
2023/06/12 12:59:51;;;;;;;5.45;4.18;;;;;;;;;;5108039;28;20546;-64
2023/06/12 13:02:18;;;;;;;7.25;4.15;;;;;;;;;;5089543;28;20039;-65
2023/06/12 13:04:47;;;;;;;5.47;3.97;;;;;;;;;;5107380;28;20075;-65
2023/06/12 13:07:14;;;;;;;6.70;3.75;;;;;;;;;;5103241;28;20050;-65
2023/06/12 13:09:41;;;;;;;4.75;3.78;;;;;;;;;;5111862;28;20039;-64
2023/06/12 13:12:10;;;;;;;6.32;3.63;;;;;;;;;;5103489;28;20130;-65
2023/06/12 13:14:37;;;;;;;5.28;3.50;;;;;;;;;;5108243;28;20146;-64
2023/06/12 13:17:05;;;;;;;5.35;3.95;;;;;;;;;;5109734;28;20526;-65
2023/06/12 13:19:32;;;;;;;5.60;4.05;;;;;;;;;;5098617;28;20050;-65
2023/06/12 13:22:02;;;;;;;4.97;3.90;;;;;;;;;;5108284;28;20044;-65
2023/06/12 13:24:29;;;;;;;5.80;3.83;;;;;;;;;;5102900;28;20503;-65
2023/06/12 13:26:57;;;;;;;5.65;3.58;;;;;;;;;;5098502;28;20040;-64
2023/06/12 13:29:24;;;;;;;5.65;3.97;;;;;;;;;;5105183;28;20039;-65
2023/06/12 13:31:51;;;;;;;5.82;4.35;;;;;;;;;;5102711;28;20048;-64
2023/06/12 13:34:18;;;;;;;11.45;3.97;;;;;;;;;;5109080;28;20044;-64
2023/06/12 13:36:46;;;;;;;4.60;4.03;;;;;;;;;;5096887;28;20070;-65
2023/06/12 13:39:15;;;;;;;5.63;3.65;;;;;;;;;;5108938;28;20058;-65
2023/06/12 13:41:43;;;;;;;4.80;4.38;;;;;;;;;;5104719;28;20043;-65
2023/06/12 13:44:10;;;;;;;6.22;4.28;;;;;;;;;;5108255;28;20040;-64
2023/06/12 13:46:37;;;;;;;5.88;4.15;;;;;;;;;;5099454;28;20047;-64
2023/06/12 13:49:06;;;;;;;8.63;4.65;;;;;;;;;;5110885;28;20685;-65
2023/06/12 13:51:36;;;;;;;7.22;3.88;;;;;;;;;;5107741;28;20044;-65
2023/06/12 13:54:03;;;;;;;5.38;4.10;;;;;;;;;;5105601;27;20077;-64
2023/06/12 13:56:32;;;;;;;6.50;4.05;;;;;;;;;;5104155;28;20059;-65
2023/06/12 13:59:00;;;;;;;5.95;4.18;;;;;;;;;;5097747;28;20064;-65
2023/06/12 14:01:28;;;;;;;5.78;4.30;;;;;;;;;;5104399;28;20143;-65
2023/06/12 14:03:55;;;;;;;7.05;4.50;;;;;;;;;;5106616;28;20104;-64
2023/06/12 14:06:22;;;;;;;5.93;4.45;;;;;;;;;;5097847;28;20063;-64
2023/06/12 14:08:50;;;;;;;5.55;4.35;;;;;;;;;;5108450;28;20055;-65
2023/06/12 14:11:18;;;;;;;4.78;4.30;;;;;;;;;;5108191;28;20058;-65
2023/06/12 14:13:46;;;;;;;6.68;4.60;;;;;;;;;;5104244;28;20370;-64
2023/06/12 14:16:14;;;;;;;5.53;4.10;;;;;;;;;;5106087;28;20509;-65
2023/06/12 14:18:41;;;;;;;5.85;4.10;;;;;;;;;;5107402;28;20047;-65
2023/06/12 14:21:11;;;;;;;6.57;4.18;;;;;;;;;;5091700;28;20152;-64
2023/06/12 14:23:39;;;;;;;6.45;4.13;;;;;;;;;;5092265;28;20410;-65
2023/06/12 14:26:06;;;;;;;5.50;3.75;;;;;;;;;;5099493;28;20044;-65
2023/06/12 14:28:34;;;;;;;5.53;3.85;;;;;;;;;;5101570;28;20047;-65
2023/06/12 14:31:02;;;;;;;4.90;3.70;;;;;;;;;;5101818;28;20056;-65
2023/06/12 14:33:29;;;;;;;6.03;4.45;;;;;;;;;;5101888;28;20047;-64
2023/06/12 14:35:57;;;;;;;5.50;4.50;;;;;;;;;;5101343;28;20060;-64
2023/06/12 14:38:24;;;;;;;5.85;3.70;;;;;;;;;;5096310;28;20452;-64
2023/06/12 14:40:51;;;;;;;6.20;3.75;;;;;;;;;;5103156;28;20043;-65
2023/06/12 14:43:18;;;;;;;5.97;4.35;;;;;;;;;;5106610;28;20052;-65
2023/06/12 14:45:46;;;;;;;5.35;4.20;;;;;;;;;;5100755;28;20055;-65
2023/06/12 14:48:14;;;;;;;4.85;4.13;;;;;;;;;;5099894;28;20047;-65